Time;durP1;ratioP1;P1;durP2;ratioP2;P2;SDS_P1;SDS_P2;PMS_P1;PMS_P2;Temp;Humidity;BMP_temperature;BMP_pressure;BME280_temperature;BME280_humidity;BME280_pressure;Samples;Min_cycle;Max_cycle;Signal;HPM_P1;HPM_P2
2022/03/20 00:02:21;;;;;;;19.17;11.47;;;;;;;;;;5016008;28;20239;-80
2022/03/20 00:04:48;;;;;;;14.70;10.40;;;;;;;;;;5016410;28;20230;-80
2022/03/20 00:07:15;;;;;;;13.70;10.10;;;;;;;;;;5015537;28;20706;-80
2022/03/20 00:09:44;;;;;;;14.00;10.43;;;;;;;;;;5016220;28;20305;-80
2022/03/20 00:12:12;;;;;;;20.40;11.77;;;;;;;;;;5015805;28;20248;-80
2022/03/20 00:14:39;;;;;;;18.83;11.40;;;;;;;;;;5016690;28;20237;-80
2022/03/20 00:17:06;;;;;;;18.43;11.33;;;;;;;;;;5016410;28;20233;-80
2022/03/20 00:19:33;;;;;;;16.13;10.13;;;;;;;;;;5016801;28;20206;-80
2022/03/20 00:22:00;;;;;;;14.13;10.23;;;;;;;;;;5016463;28;20249;-80
2022/03/20 00:24:28;;;;;;;14.83;10.73;;;;;;;;;;5016542;28;20230;-80
2022/03/20 00:26:56;;;;;;;15.57;10.90;;;;;;;;;;5016124;28;20238;-80
2022/03/20 00:29:25;;;;;;;16.23;11.00;;;;;;;;;;5017046;28;20211;-80
2022/03/20 00:31:53;;;;;;;16.73;10.67;;;;;;;;;;5016563;28;20238;-80
2022/03/20 00:34:20;;;;;;;14.17;9.63;;;;;;;;;;5016809;28;20220;-80
2022/03/20 00:36:47;;;;;;;16.33;10.47;;;;;;;;;;5015475;28;20238;-80
2022/03/20 00:39:14;;;;;;;17.13;11.33;;;;;;;;;;5025979;28;20203;-78
2022/03/20 00:41:42;;;;;;;17.73;11.00;;;;;;;;;;5030036;28;20240;-80
2022/03/20 00:44:09;;;;;;;16.63;11.13;;;;;;;;;;5020976;28;20267;-80
2022/03/20 00:46:37;;;;;;;15.00;10.33;;;;;;;;;;5016772;28;20738;-80
2022/03/20 00:49:05;;;;;;;14.10;10.43;;;;;;;;;;5017396;28;20209;-80
2022/03/20 00:51:32;;;;;;;16.67;11.27;;;;;;;;;;5015658;28;20242;-81
2022/03/20 00:53:59;;;;;;;15.43;11.00;;;;;;;;;;5015619;28;20222;-81
2022/03/20 00:56:26;;;;;;;17.93;11.30;;;;;;;;;;5014603;28;20233;-80
2022/03/20 00:58:53;;;;;;;19.60;10.47;;;;;;;;;;5015132;28;20211;-81
2022/03/20 01:01:21;;;;;;;14.40;10.33;;;;;;;;;;5015802;28;20237;-80
2022/03/20 01:03:49;;;;;;;14.87;10.77;;;;;;;;;;5015209;28;20238;-80
2022/03/20 01:06:17;;;;;;;16.10;10.93;;;;;;;;;;5014876;28;20262;-80
2022/03/20 01:08:44;;;;;;;17.90;11.03;;;;;;;;;;5015228;28;20281;-80
2022/03/20 01:11:12;;;;;;;17.97;11.20;;;;;;;;;;5015255;28;20232;-80
2022/03/20 01:13:39;;;;;;;20.73;10.90;;;;;;;;;;5015674;28;20749;-80
2022/03/20 01:16:06;;;;;;;15.87;10.83;;;;;;;;;;5014427;28;20235;-80
2022/03/20 01:18:33;;;;;;;17.30;11.43;;;;;;;;;;5014804;28;20218;-80
2022/03/20 01:21:02;;;;;;;18.10;11.00;;;;;;;;;;5014758;28;20258;-80
2022/03/20 01:23:29;;;;;;;13.87;10.53;;;;;;;;;;5014784;28;20239;-80
2022/03/20 01:25:58;;;;;;;17.43;11.23;;;;;;;;;;5014388;28;20242;-80
2022/03/20 01:28:25;;;;;;;17.60;11.53;;;;;;;;;;5015092;28;20205;-80
2022/03/20 01:30:53;;;;;;;17.33;10.37;;;;;;;;;;5014907;28;20245;-80
2022/03/20 01:33:20;;;;;;;16.17;11.20;;;;;;;;;;5014408;28;20232;-80
2022/03/20 01:35:47;;;;;;;19.00;11.13;;;;;;;;;;5014211;28;20244;-80
2022/03/20 01:38:19;;;;;;;14.23;10.83;;;;;;;;;;5015137;28;20235;-80
2022/03/20 01:40:47;;;;;;;15.57;11.33;;;;;;;;;;5014431;28;20318;-80
2022/03/20 01:43:14;;;;;;;16.47;11.30;;;;;;;;;;5014862;28;20263;-80
2022/03/20 01:45:41;;;;;;;16.57;11.50;;;;;;;;;;5014049;28;20231;-80
2022/03/20 01:48:08;;;;;;;19.37;11.40;;;;;;;;;;5014367;28;20208;-80
2022/03/20 01:50:35;;;;;;;21.20;12.03;;;;;;;;;;5014028;28;20235;-80
2022/03/20 01:53:03;;;;;;;19.27;11.30;;;;;;;;;;5014583;28;20242;-80
2022/03/20 01:55:32;;;;;;;17.57;12.27;;;;;;;;;;5014044;28;20237;-80
2022/03/20 01:58:00;;;;;;;18.17;11.57;;;;;;;;;;5013242;28;20231;-80
2022/03/20 02:00:28;;;;;;;17.73;11.40;;;;;;;;;;5013782;28;20255;-80
2022/03/20 02:02:55;;;;;;;17.30;12.03;;;;;;;;;;5013856;28;20210;-80
2022/03/20 02:05:22;;;;;;;17.47;11.73;;;;;;;;;;5013755;28;20684;-80
2022/03/20 02:07:50;;;;;;;17.33;11.27;;;;;;;;;;5013622;28;20667;-80
2022/03/20 02:10:17;;;;;;;14.63;11.03;;;;;;;;;;5008440;28;20207;-81
2022/03/20 02:12:46;;;;;;;17.00;11.20;;;;;;;;;;5014308;28;20266;-79
2022/03/20 02:15:14;;;;;;;19.37;11.23;;;;;;;;;;5014123;28;20212;-80
2022/03/20 02:17:42;;;;;;;17.63;11.97;;;;;;;;;;5013919;28;20229;-79
2022/03/20 02:20:10;;;;;;;16.30;11.57;;;;;;;;;;5013767;28;20281;-79
2022/03/20 02:22:40;;;;;;;16.60;11.17;;;;;;;;;;5014596;28;20233;-80
2022/03/20 02:25:08;;;;;;;16.03;11.30;;;;;;;;;;5013975;28;20837;-80
2022/03/20 02:27:39;;;;;;;18.03;11.47;;;;;;;;;;5013918;28;20629;-80
2022/03/20 02:30:12;;;;;;;17.60;11.83;;;;;;;;;;5013858;28;20226;-81
2022/03/20 02:32:40;;;;;;;18.10;11.83;;;;;;;;;;5013835;28;20215;-80
2022/03/20 02:35:11;;;;;;;19.97;12.77;;;;;;;;;;5013536;28;20218;-80
2022/03/20 02:37:40;;;;;;;17.43;12.63;;;;;;;;;;5014287;28;20235;-79
2022/03/20 02:40:09;;;;;;;21.57;12.63;;;;;;;;;;5014014;28;20210;-80
2022/03/20 02:42:37;;;;;;;20.57;12.93;;;;;;;;;;5013961;28;20211;-80
2022/03/20 02:45:07;;;;;;;19.10;12.40;;;;;;;;;;5056204;22;20238;-85
2022/03/20 02:47:35;;;;;;;20.97;12.77;;;;;;;;;;5032708;28;20199;-84
2022/03/20 02:50:03;;;;;;;20.13;12.47;;;;;;;;;;5032538;28;20229;-84
2022/03/20 02:52:31;;;;;;;17.90;11.60;;;;;;;;;;5031909;28;20222;-84
2022/03/20 02:55:01;;;;;;;19.27;12.17;;;;;;;;;;5032178;28;20226;-85
2022/03/20 02:57:30;;;;;;;19.47;11.87;;;;;;;;;;5031878;28;20772;-85
2022/03/20 03:00:00;;;;;;;18.73;12.53;;;;;;;;;;5032293;28;20222;-84
2022/03/20 03:02:30;;;;;;;19.27;12.10;;;;;;;;;;5032268;28;20277;-84
2022/03/20 03:04:59;;;;;;;19.23;11.83;;;;;;;;;;5032044;28;20244;-84
2022/03/20 03:07:26;;;;;;;20.63;13.00;;;;;;;;;;5031525;28;20237;-84
2022/03/20 03:12:39;;;;;;;20.37;12.20;;;;;;;;;;5031942;28;20213;-84
2022/03/20 03:17:59;;;;;;;21.93;13.20;;;;;;;;;;5025736;28;20243;-84
2022/03/20 03:20:26;;;;;;;17.63;12.70;;;;;;;;;;5031699;28;20223;-85
2022/03/20 03:22:54;;;;;;;21.10;12.83;;;;;;;;;;5036062;28;20210;-84
2022/03/20 03:25:22;;;;;;;20.43;12.93;;;;;;;;;;5035506;28;20599;-84
2022/03/20 03:27:58;;;;;;;19.20;12.90;;;;;;;;;;5035606;28;20202;-84
2022/03/20 03:30:25;;;;;;;21.27;13.60;;;;;;;;;;5035662;28;20230;-84
2022/03/20 03:32:53;;;;;;;22.83;13.47;;;;;;;;;;5035998;28;20689;-84
2022/03/20 03:38:05;;;;;;;20.23;12.67;;;;;;;;;;5035771;28;20234;-84
2022/03/20 03:40:32;;;;;;;20.73;13.70;;;;;;;;;;5035334;28;20721;-85
2022/03/20 03:43:02;;;;;;;22.30;13.67;;;;;;;;;;5035586;28;20693;-84
2022/03/20 03:45:29;;;;;;;20.80;14.00;;;;;;;;;;5035619;28;20237;-84
2022/03/20 03:47:56;;;;;;;24.70;14.43;;;;;;;;;;5035548;28;20211;-85
2022/03/20 03:50:24;;;;;;;20.57;13.77;;;;;;;;;;5035098;28;20690;-84
2022/03/20 03:52:51;;;;;;;22.13;13.57;;;;;;;;;;5035969;28;20210;-84
2022/03/20 03:55:18;;;;;;;22.17;13.47;;;;;;;;;;5035264;28;20635;-84
2022/03/20 03:57:46;;;;;;;22.80;14.57;;;;;;;;;;5035419;28;20258;-84
2022/03/20 04:00:15;;;;;;;27.27;15.43;;;;;;;;;;5035383;28;20203;-84
2022/03/20 04:02:42;;;;;;;25.23;15.80;;;;;;;;;;5035398;28;20199;-84
2022/03/20 04:05:10;;;;;;;25.20;14.67;;;;;;;;;;5034906;28;20621;-84
2022/03/20 04:07:37;;;;;;;25.30;15.17;;;;;;;;;;5035304;28;20194;-84
2022/03/20 04:10:05;;;;;;;27.53;15.70;;;;;;;;;;5035293;28;20210;-84
2022/03/20 04:12:33;;;;;;;23.73;15.20;;;;;;;;;;5035303;28;20317;-85
2022/03/20 04:15:02;;;;;;;28.00;16.53;;;;;;;;;;5035397;28;20258;-84
2022/03/20 04:17:31;;;;;;;25.30;16.17;;;;;;;;;;5034703;28;20317;-84
2022/03/20 04:19:58;;;;;;;28.30;16.40;;;;;;;;;;5035289;28;20202;-84
2022/03/20 04:22:25;;;;;;;26.23;16.40;;;;;;;;;;5034757;28;20238;-84
2022/03/20 04:24:52;;;;;;;23.67;15.57;;;;;;;;;;5034982;28;20817;-84
2022/03/20 04:27:19;;;;;;;23.13;16.13;;;;;;;;;;5034320;28;20226;-84
2022/03/20 04:29:47;;;;;;;25.20;15.77;;;;;;;;;;5035053;28;20214;-84
2022/03/20 04:32:15;;;;;;;26.10;16.37;;;;;;;;;;5033143;28;20237;-84
2022/03/20 04:34:43;;;;;;;25.07;16.03;;;;;;;;;;5034660;28;20626;-84
2022/03/20 04:37:11;;;;;;;26.90;14.97;;;;;;;;;;5034031;28;20241;-84
2022/03/20 04:39:38;;;;;;;27.67;16.53;;;;;;;;;;5034838;28;20589;-84
2022/03/20 04:42:06;;;;;;;29.47;16.63;;;;;;;;;;5034166;28;20239;-85
2022/03/20 04:44:34;;;;;;;23.83;16.10;;;;;;;;;;5034246;28;20832;-84
2022/03/20 04:47:01;;;;;;;24.70;15.50;;;;;;;;;;5033989;28;20239;-84
2022/03/20 05:00:28;;;;;;;23.83;15.20;;;;;;;;;;5033962;28;20650;-84
2022/03/20 05:02:55;;;;;;;29.07;15.77;;;;;;;;;;5034505;28;20207;-84
2022/03/20 05:05:22;;;;;;;24.23;15.73;;;;;;;;;;5034072;28;20207;-84
2022/03/20 05:07:50;;;;;;;28.50;15.73;;;;;;;;;;5041456;28;20260;-84
2022/03/20 05:13:20;;;;;;;25.53;14.67;;;;;;;;;;5034345;28;20179;-85
2022/03/20 05:15:47;;;;;;;23.73;14.40;;;;;;;;;;5034513;28;20246;-84
2022/03/20 05:18:14;;;;;;;23.07;15.73;;;;;;;;;;5034449;28;20227;-85
2022/03/20 05:20:44;;;;;;;26.33;15.33;;;;;;;;;;5033497;28;20245;-85
2022/03/20 05:23:12;;;;;;;27.73;14.70;;;;;;;;;;5034140;28;20681;-85
2022/03/20 05:25:39;;;;;;;27.10;16.97;;;;;;;;;;5033545;28;20237;-85
2022/03/20 05:28:07;;;;;;;24.43;15.47;;;;;;;;;;5034029;28;20207;-85
2022/03/20 05:30:34;;;;;;;24.37;16.07;;;;;;;;;;5033608;28;20690;-85
2022/03/20 05:33:01;;;;;;;24.83;15.93;;;;;;;;;;5034442;28;20214;-85
2022/03/20 05:35:29;;;;;;;24.50;16.17;;;;;;;;;;5033695;28;20313;-85
2022/03/20 05:37:56;;;;;;;24.10;15.87;;;;;;;;;;5033777;28;20537;-85
2022/03/20 05:40:24;;;;;;;25.17;17.33;;;;;;;;;;5033596;28;20234;-85
2022/03/20 05:42:51;;;;;;;26.00;16.97;;;;;;;;;;5033888;28;20206;-85
2022/03/20 05:45:18;;;;;;;26.37;17.10;;;;;;;;;;5033003;28;20718;-85
2022/03/20 05:47:45;;;;;;;29.13;18.17;;;;;;;;;;5033488;28;20206;-85
2022/03/20 05:50:12;;;;;;;27.97;17.80;;;;;;;;;;5033364;28;20264;-85
2022/03/20 05:52:40;;;;;;;25.97;17.03;;;;;;;;;;5033851;28;20567;-85
2022/03/20 05:55:08;;;;;;;28.27;17.53;;;;;;;;;;5033469;28;20227;-85
2022/03/20 06:00:25;;;;;;;29.30;17.53;;;;;;;;;;5033275;28;20242;-85
2022/03/20 06:02:52;;;;;;;22.90;14.53;;;;;;;;;;5033759;28;20207;-85
2022/03/20 06:05:19;;;;;;;23.27;17.37;;;;;;;;;;5033229;28;20230;-85
2022/03/20 06:07:47;;;;;;;29.17;17.53;;;;;;;;;;5033413;28;20745;-85
2022/03/20 06:10:15;;;;;;;25.57;17.60;;;;;;;;;;5032955;28;20218;-85
2022/03/20 06:12:43;;;;;;;28.07;18.40;;;;;;;;;;5033682;28;20211;-85
2022/03/20 06:15:11;;;;;;;25.67;16.87;;;;;;;;;;5032510;28;20233;-85
2022/03/20 06:17:39;;;;;;;22.23;14.73;;;;;;;;;;5032862;28;20267;-85
2022/03/20 06:20:07;;;;;;;23.30;15.13;;;;;;;;;;5032668;28;20253;-85
2022/03/20 06:22:35;;;;;;;24.70;15.23;;;;;;;;;;5032891;28;20245;-85
2022/03/20 06:25:03;;;;;;;24.77;15.37;;;;;;;;;;5033352;28;20223;-85
2022/03/20 06:27:30;;;;;;;23.40;15.77;;;;;;;;;;5032837;28;20230;-85
2022/03/20 06:29:58;;;;;;;29.43;17.60;;;;;;;;;;5032936;28;20678;-85
2022/03/20 06:32:27;;;;;;;25.07;17.53;;;;;;;;;;5032850;28;20742;-85
2022/03/20 06:34:54;;;;;;;22.50;14.73;;;;;;;;;;5033262;28;20638;-86
2022/03/20 06:37:21;;;;;;;27.70;17.10;;;;;;;;;;5032240;28;20296;-84
2022/03/20 06:39:48;;;;;;;29.23;17.90;;;;;;;;;;5032791;28;20231;-85
2022/03/20 06:42:15;;;;;;;28.73;17.70;;;;;;;;;;5032234;28;20240;-84
2022/03/20 06:44:42;;;;;;;25.63;16.40;;;;;;;;;;5032465;28;20234;-85
2022/03/20 06:47:10;;;;;;;20.70;14.30;;;;;;;;;;5031671;28;20257;-84
2022/03/20 06:49:37;;;;;;;25.67;15.70;;;;;;;;;;5032823;28;20811;-85
2022/03/20 06:52:04;;;;;;;24.97;16.40;;;;;;;;;;5032332;28;20244;-84
2022/03/20 06:54:32;;;;;;;27.17;16.63;;;;;;;;;;5032937;28;20221;-84
2022/03/20 06:56:59;;;;;;;20.93;13.43;;;;;;;;;;5032558;28;20235;-84
2022/03/20 06:59:26;;;;;;;25.13;16.20;;;;;;;;;;5034226;28;20232;-85
2022/03/20 07:01:53;;;;;;;25.57;16.73;;;;;;;;;;5031981;28;20239;-84
2022/03/20 07:04:21;;;;;;;29.40;16.80;;;;;;;;;;5032194;28;20228;-85
2022/03/20 07:06:48;;;;;;;27.80;17.70;;;;;;;;;;5031600;28;20234;-85
2022/03/20 07:09:15;;;;;;;30.43;17.30;;;;;;;;;;5032206;28;20678;-85
2022/03/20 07:11:42;;;;;;;28.77;17.83;;;;;;;;;;5036363;28;20232;-84
2022/03/20 07:14:09;;;;;;;24.30;16.13;;;;;;;;;;5038337;28;20240;-85
2022/03/20 07:16:38;;;;;;;26.23;17.03;;;;;;;;;;5035775;28;20734;-85
2022/03/20 07:19:05;;;;;;;25.20;17.40;;;;;;;;;;5037243;28;20226;-85
2022/03/20 07:21:51;;;;;;;27.13;17.50;;;;;;;;;;5038714;28;20232;-85
2022/03/20 07:24:19;;;;;;;24.83;16.83;;;;;;;;;;5037296;28;20245;-85
2022/03/20 07:29:31;;;;;;;27.23;17.63;;;;;;;;;;5033370;28;20190;-86
2022/03/20 07:31:58;;;;;;;28.43;18.17;;;;;;;;;;5026374;28;20241;-86
2022/03/20 07:34:26;;;;;;;25.60;17.40;;;;;;;;;;5031564;28;20625;-86
2022/03/20 07:36:53;;;;;;;26.77;18.07;;;;;;;;;;5031400;28;20261;-85
2022/03/20 07:39:22;;;;;;;26.73;17.03;;;;;;;;;;5031872;28;20625;-87
2022/03/20 07:41:49;;;;;;;27.73;16.97;;;;;;;;;;5031707;28;20244;-87
2022/03/20 07:44:16;;;;;;;26.57;17.10;;;;;;;;;;5031831;28;20598;-87
2022/03/20 07:46:43;;;;;;;28.03;18.10;;;;;;;;;;5031339;28;20238;-88
2022/03/20 07:49:10;;;;;;;27.63;18.47;;;;;;;;;;5032135;28;20209;-88
2022/03/20 07:51:38;;;;;;;26.80;17.07;;;;;;;;;;5031789;28;20241;-88
2022/03/20 07:54:05;;;;;;;30.07;18.37;;;;;;;;;;5031447;28;20590;-88
2022/03/20 07:56:35;;;;;;;27.77;17.60;;;;;;;;;;5031257;28;20604;-88
2022/03/20 07:59:06;;;;;;;20.37;15.00;;;;;;;;;;5031856;28;20224;-89
2022/03/20 08:01:33;;;;;;;27.00;17.37;;;;;;;;;;5031715;28;20602;-87
2022/03/20 08:04:00;;;;;;;27.37;17.73;;;;;;;;;;5032279;28;20237;-87
2022/03/20 08:06:28;;;;;;;23.10;16.03;;;;;;;;;;5032653;28;20238;-88
2022/03/20 08:08:59;;;;;;;26.03;16.60;;;;;;;;;;5035780;28;20263;-88
2022/03/20 08:11:27;;;;;;;24.80;15.70;;;;;;;;;;5035457;28;20241;-88
2022/03/20 08:13:56;;;;;;;18.73;13.67;;;;;;;;;;5035248;28;20219;-89
2022/03/20 08:16:25;;;;;;;25.37;16.57;;;;;;;;;;5035516;28;20242;-90
2022/03/20 08:18:52;;;;;;;23.60;17.17;;;;;;;;;;5036494;28;20227;-89
2022/03/20 08:21:20;;;;;;;26.10;15.07;;;;;;;;;;5050724;28;20248;-90
2022/03/20 08:23:48;;;;;;;25.90;15.07;;;;;;;;;;5055810;28;20253;-89
2022/03/20 08:26:18;;;;;;;28.27;17.47;;;;;;;;;;5055585;28;20249;-89
2022/03/20 08:28:45;;;;;;;28.73;17.07;;;;;;;;;;5056809;28;20187;-88
2022/03/20 08:31:13;;;;;;;22.90;17.60;;;;;;;;;;5054084;28;20238;-87
2022/03/20 08:33:41;;;;;;;24.23;16.67;;;;;;;;;;5036687;28;20219;-88
2022/03/20 08:36:09;;;;;;;25.00;17.27;;;;;;;;;;5036209;28;20246;-89
2022/03/20 08:38:37;;;;;;;23.90;15.87;;;;;;;;;;5036720;28;20667;-88
2022/03/20 08:41:05;;;;;;;25.27;16.20;;;;;;;;;;5035654;28;20238;-86
2022/03/20 08:43:32;;;;;;;26.67;17.33;;;;;;;;;;5036439;28;20241;-85
2022/03/20 08:45:59;;;;;;;26.23;17.07;;;;;;;;;;5036796;28;20234;-86
2022/03/20 08:48:27;;;;;;;21.77;15.53;;;;;;;;;;5036438;28;20210;-84
2022/03/20 08:50:54;;;;;;;25.90;17.33;;;;;;;;;;5035266;28;20238;-88
2022/03/20 08:53:22;;;;;;;25.57;16.93;;;;;;;;;;5035286;28;20821;-87
2022/03/20 08:55:50;;;;;;;22.40;13.83;;;;;;;;;;5034850;28;20261;-87
2022/03/20 08:58:17;;;;;;;28.70;17.20;;;;;;;;;;5035361;28;20195;-87
2022/03/20 09:00:45;;;;;;;24.00;16.10;;;;;;;;;;5035203;28;20737;-87
2022/03/20 09:03:13;;;;;;;21.70;15.47;;;;;;;;;;5036271;28;20206;-86
2022/03/20 09:05:41;;;;;;;16.33;12.13;;;;;;;;;;5035001;28;20249;-86
2022/03/20 09:08:08;;;;;;;21.37;14.50;;;;;;;;;;5035510;28;20206;-86
2022/03/20 09:10:36;;;;;;;20.20;13.93;;;;;;;;;;5035353;28;20237;-86
2022/03/20 09:13:03;;;;;;;18.27;10.80;;;;;;;;;;5030862;28;20638;-85
2022/03/20 09:15:31;;;;;;;21.63;15.60;;;;;;;;;;5035007;28;20340;-85
2022/03/20 09:20:45;;;;;;;21.87;15.13;;;;;;;;;;5035469;28;20245;-85
2022/03/20 09:23:12;;;;;;;23.80;16.23;;;;;;;;;;5035742;28;20229;-85
2022/03/20 09:25:40;;;;;;;24.03;15.93;;;;;;;;;;5033722;28;20226;-85
2022/03/20 09:28:09;;;;;;;19.00;12.83;;;;;;;;;;5034623;28;20230;-85
2022/03/20 09:30:38;;;;;;;23.43;15.77;;;;;;;;;;5034431;28;20233;-85
2022/03/20 09:33:05;;;;;;;24.47;15.57;;;;;;;;;;5034807;28;20297;-84
2022/03/20 09:35:32;;;;;;;21.83;16.13;;;;;;;;;;5034953;28;20242;-84
2022/03/20 09:38:03;;;;;;;21.40;15.77;;;;;;;;;;5034116;28;20241;-84
2022/03/20 09:40:30;;;;;;;24.37;14.90;;;;;;;;;;5033128;28;20241;-84
2022/03/20 09:42:57;;;;;;;22.73;16.00;;;;;;;;;;5033887;28;20202;-84
2022/03/20 09:45:24;;;;;;;22.90;16.00;;;;;;;;;;5033315;28;20245;-84
2022/03/20 09:47:53;;;;;;;27.80;17.37;;;;;;;;;;5034216;28;20218;-84
2022/03/20 09:50:20;;;;;;;20.60;13.67;;;;;;;;;;5033694;28;20191;-85
2022/03/20 09:52:47;;;;;;;21.50;14.93;;;;;;;;;;5034173;28;20211;-84
2022/03/20 09:55:16;;;;;;;21.20;13.53;;;;;;;;;;5032956;28;20219;-85
2022/03/20 09:57:43;;;;;;;22.77;15.93;;;;;;;;;;5033741;28;20300;-84
2022/03/20 10:00:12;;;;;;;22.57;14.73;;;;;;;;;;5033528;28;20230;-84
2022/03/20 10:02:40;;;;;;;21.77;15.40;;;;;;;;;;5033468;28;20191;-84
2022/03/20 10:05:08;;;;;;;23.27;15.43;;;;;;;;;;5033143;28;20218;-85
2022/03/20 10:07:36;;;;;;;20.53;15.67;;;;;;;;;;5034336;28;20213;-83
2022/03/20 10:10:07;;;;;;;19.90;14.90;;;;;;;;;;5034003;28;20225;-83
2022/03/20 10:12:36;;;;;;;21.90;16.23;;;;;;;;;;5034258;28;20627;-83
2022/03/20 10:15:05;;;;;;;23.63;16.60;;;;;;;;;;5034269;28;20233;-84
2022/03/20 10:17:32;;;;;;;24.03;15.27;;;;;;;;;;5038514;28;20217;-85
2022/03/20 10:20:13;;;;;;;22.37;15.33;;;;;;;;;;5039988;28;20298;-84
2022/03/20 10:22:40;;;;;;;20.37;15.70;;;;;;;;;;5034644;28;20276;-84
2022/03/20 10:25:10;;;;;;;21.53;16.30;;;;;;;;;;5037783;28;20237;-84
2022/03/20 10:27:39;;;;;;;23.63;16.30;;;;;;;;;;5035009;28;20195;-84
2022/03/20 10:30:09;;;;;;;23.80;15.70;;;;;;;;;;5035144;28;20203;-86
2022/03/20 10:32:36;;;;;;;23.37;17.07;;;;;;;;;;5036027;28;20213;-85
2022/03/20 10:35:05;;;;;;;21.43;16.17;;;;;;;;;;5034642;28;20231;-83
2022/03/20 10:37:45;;;;;;;21.50;16.33;;;;;;;;;;5036427;28;20233;-83
2022/03/20 10:40:15;;;;;;;22.70;16.17;;;;;;;;;;5035580;28;20261;-84
2022/03/20 10:42:44;;;;;;;24.10;17.13;;;;;;;;;;5039844;28;20217;-83
2022/03/20 10:45:11;;;;;;;19.37;14.63;;;;;;;;;;5036702;28;20242;-83
2022/03/20 10:47:38;;;;;;;20.70;14.43;;;;;;;;;;5036961;28;20640;-83
2022/03/20 10:50:07;;;;;;;22.93;15.33;;;;;;;;;;5035070;28;20207;-83
2022/03/20 10:52:36;;;;;;;23.57;15.33;;;;;;;;;;5035613;28;20214;-84
2022/03/20 10:55:08;;;;;;;19.20;12.90;;;;;;;;;;5034924;28;20249;-85
2022/03/20 10:57:36;;;;;;;20.97;15.67;;;;;;;;;;5033971;28;20679;-85
2022/03/20 11:00:06;;;;;;;22.50;16.07;;;;;;;;;;5033840;28;20237;-85
2022/03/20 11:02:35;;;;;;;20.20;15.40;;;;;;;;;;5033431;28;20207;-83
2022/03/20 11:05:02;;;;;;;22.57;16.60;;;;;;;;;;5034485;28;20238;-84
2022/03/20 11:07:30;;;;;;;24.37;17.50;;;;;;;;;;5037434;28;20222;-84
2022/03/20 11:09:57;;;;;;;23.67;16.30;;;;;;;;;;5033453;28;20206;-85
2022/03/20 11:12:26;;;;;;;25.33;16.98;;;;;;;;;;5033031;28;20245;-83
2022/03/20 11:14:54;;;;;;;20.35;14.93;;;;;;;;;;5032099;28;20597;-84
2022/03/20 11:17:23;;;;;;;22.10;16.20;;;;;;;;;;5031984;28;20244;-83
2022/03/20 11:19:51;;;;;;;23.10;16.58;;;;;;;;;;5034484;28;20214;-84
2022/03/20 11:22:19;;;;;;;20.38;14.95;;;;;;;;;;5033021;28;20592;-84
2022/03/20 11:24:47;;;;;;;19.10;14.95;;;;;;;;;;5030529;28;20227;-84
2022/03/20 11:27:17;;;;;;;21.80;16.05;;;;;;;;;;5025832;28;20667;-83
2022/03/20 11:29:46;;;;;;;24.23;15.57;;;;;;;;;;5041689;28;20278;-81
2022/03/20 11:32:14;;;;;;;21.75;15.18;;;;;;;;;;5034966;28;20230;-84
2022/03/20 11:34:44;;;;;;;19.10;14.35;;;;;;;;;;5035445;28;20237;-85
2022/03/20 11:37:12;;;;;;;21.52;15.30;;;;;;;;;;5033530;28;20326;-84
2022/03/20 11:39:39;;;;;;;18.98;13.70;;;;;;;;;;5032700;28;20222;-84
2022/03/20 11:42:23;;;;;;;24.98;13.70;;;;;;;;;;5032597;28;20726;-83
2022/03/20 11:45:11;;;;;;;18.92;13.20;;;;;;;;;;5036077;28;20238;-84
2022/03/20 11:47:38;;;;;;;18.38;14.23;;;;;;;;;;5036118;28;20218;-84
2022/03/20 11:50:11;;;;;;;19.95;14.35;;;;;;;;;;5036997;28;20203;-82
2022/03/20 11:52:45;;;;;;;15.98;12.50;;;;;;;;;;5035877;28;20207;-83
2022/03/20 11:55:25;;;;;;;17.83;14.02;;;;;;;;;;5037096;28;20261;-82
2022/03/20 11:57:53;;;;;;;20.33;13.35;;;;;;;;;;5038202;28;20241;-82
2022/03/20 12:00:24;;;;;;;20.50;13.50;;;;;;;;;;5037353;28;20226;-82
2022/03/20 12:03:14;;;;;;;15.82;13.20;;;;;;;;;;5036601;28;20222;-81
2022/03/20 12:06:00;;;;;;;18.98;12.20;;;;;;;;;;5009896;28;20594;-82
2022/03/20 12:08:35;;;;;;;15.57;11.82;;;;;;;;;;5036499;28;20218;-81
2022/03/20 12:11:06;;;;;;;17.00;14.93;;;;;;;;;;5035736;28;20234;-84
2022/03/20 12:13:42;;;;;;;16.80;13.20;;;;;;;;;;5056427;28;20225;-81
2022/03/20 12:16:09;;;;;;;16.08;11.85;;;;;;;;;;5056117;28;20237;-80
2022/03/20 12:18:51;;;;;;;17.05;12.82;;;;;;;;;;5055670;28;20241;-84
2022/03/20 12:21:20;;;;;;;16.88;12.18;;;;;;;;;;5055700;28;20255;-83
2022/03/20 12:23:47;;;;;;;16.08;13.13;;;;;;;;;;5060137;28;20226;-84
2022/03/20 12:26:46;;;;;;;14.80;11.25;;;;;;;;;;5054774;28;20245;-85
2022/03/20 12:29:34;;;;;;;14.68;11.48;;;;;;;;;;5056393;28;20236;-84
2022/03/20 12:32:02;;;;;;;28.98;16.35;;;;;;;;;;5055089;28;20233;-85
2022/03/20 12:34:30;;;;;;;21.48;13.00;;;;;;;;;;5055892;28;20563;-84
2022/03/20 12:37:32;;;;;;;13.40;10.55;;;;;;;;;;5055336;28;20233;-84
2022/03/20 12:40:06;;;;;;;14.40;10.73;;;;;;;;;;5054579;28;20229;-85
2022/03/20 12:42:34;;;;;;;11.70;10.02;;;;;;;;;;5054694;28;20682;-84
2022/03/20 12:45:03;;;;;;;12.98;10.07;;;;;;;;;;5054058;28;20234;-84
2022/03/20 12:47:30;;;;;;;11.07;8.43;;;;;;;;;;5054734;28;20674;-84
2022/03/20 12:50:00;;;;;;;12.52;9.63;;;;;;;;;;5050197;28;20210;-85
2022/03/20 12:52:30;;;;;;;13.23;8.25;;;;;;;;;;5034646;28;20237;-85
2022/03/20 12:54:58;;;;;;;10.82;7.68;;;;;;;;;;5033358;28;20234;-85
2022/03/20 12:57:38;;;;;;;11.13;7.97;;;;;;;;;;5033806;28;20253;-85
2022/03/20 13:00:10;;;;;;;10.15;7.45;;;;;;;;;;5033534;28;20222;-85
2022/03/20 13:02:53;;;;;;;11.65;7.75;;;;;;;;;;5034432;28;20210;-85
2022/03/20 13:05:20;;;;;;;8.43;6.82;;;;;;;;;;5033389;28;20242;-85
2022/03/20 13:07:48;;;;;;;10.65;7.32;;;;;;;;;;5033090;28;20233;-86
2022/03/20 13:10:16;;;;;;;9.65;7.57;;;;;;;;;;5033852;28;20671;-85
2022/03/20 13:12:51;;;;;;;10.07;7.30;;;;;;;;;;5037669;28;20245;-84
2022/03/20 13:15:22;;;;;;;10.20;6.57;;;;;;;;;;5032697;28;20225;-87
2022/03/20 13:17:49;;;;;;;9.18;6.50;;;;;;;;;;5033794;28;20202;-85
2022/03/20 13:20:17;;;;;;;9.93;5.40;;;;;;;;;;5033410;28;20223;-86
2022/03/20 13:22:44;;;;;;;7.82;5.53;;;;;;;;;;5033775;28;20210;-87
2022/03/20 13:25:17;;;;;;;7.85;6.57;;;;;;;;;;5030315;28;20815;-83
2022/03/20 13:27:46;;;;;;;8.50;6.82;;;;;;;;;;5034445;28;20203;-83
2022/03/20 13:30:14;;;;;;;8.52;7.00;;;;;;;;;;5032500;28;20615;-82
2022/03/20 13:32:42;;;;;;;8.63;7.57;;;;;;;;;;5032634;28;20245;-85
2022/03/20 13:35:09;;;;;;;10.30;6.90;;;;;;;;;;5032017;28;20265;-85
2022/03/20 13:37:37;;;;;;;9.93;7.05;;;;;;;;;;5032778;28;20207;-84
2022/03/20 13:40:04;;;;;;;13.07;7.30;;;;;;;;;;5032853;28;20233;-84
2022/03/20 13:42:33;;;;;;;11.63;6.72;;;;;;;;;;5033735;28;20286;-84
2022/03/20 13:45:01;;;;;;;9.75;7.07;;;;;;;;;;5033075;28;20249;-85
2022/03/20 13:47:29;;;;;;;8.40;5.82;;;;;;;;;;5032957;28;20219;-84
2022/03/20 13:50:00;;;;;;;9.20;5.53;;;;;;;;;;5033593;28;20695;-85
2022/03/20 13:52:29;;;;;;;9.52;6.57;;;;;;;;;;5033654;28;20230;-85
2022/03/20 13:55:00;;;;;;;11.38;6.03;;;;;;;;;;5033298;28;20222;-85
2022/03/20 13:57:30;;;;;;;11.93;6.50;;;;;;;;;;5033246;28;20230;-85
2022/03/20 14:00:00;;;;;;;10.02;5.72;;;;;;;;;;5033431;28;20555;-85
2022/03/20 14:02:39;;;;;;;13.27;6.20;;;;;;;;;;5034878;28;20226;-85
2022/03/20 14:05:10;;;;;;;10.90;6.20;;;;;;;;;;5034190;28;20233;-85
2022/03/20 14:07:37;;;;;;;9.00;6.65;;;;;;;;;;5033402;28;20211;-84
2022/03/20 14:10:16;;;;;;;7.38;6.20;;;;;;;;;;5033280;28;20215;-84
2022/03/20 14:12:43;;;;;;;8.45;6.47;;;;;;;;;;5033447;28;20222;-84
2022/03/20 14:15:13;;;;;;;10.95;5.68;;;;;;;;;;5032354;28;20778;-85
2022/03/20 14:17:40;;;;;;;10.43;6.18;;;;;;;;;;5033385;28;20568;-85
2022/03/20 14:20:09;;;;;;;9.48;6.00;;;;;;;;;;5032452;28;20211;-83
2022/03/20 14:22:43;;;;;;;7.95;6.32;;;;;;;;;;5033593;28;20636;-82
2022/03/20 14:25:10;;;;;;;7.00;5.50;;;;;;;;;;5032364;28;20281;-82
2022/03/20 14:27:39;;;;;;;8.68;6.13;;;;;;;;;;5032428;28;20211;-82
2022/03/20 14:41:27;;;;;;;8.10;5.38;;;;;;;;;;5033165;28;20261;-85
2022/03/20 14:44:08;;;;;;;8.18;6.63;;;;;;;;;;5033454;28;20250;-85
2022/03/20 14:46:35;;;;;;;7.15;5.35;;;;;;;;;;5033158;28;20234;-82
2022/03/20 14:49:04;;;;;;;9.80;5.60;;;;;;;;;;5033782;28;20206;-84
2022/03/20 14:51:31;;;;;;;8.02;5.55;;;;;;;;;;5033376;28;20642;-84
2022/03/20 14:53:58;;;;;;;7.60;5.63;;;;;;;;;;5033607;28;20226;-84
2022/03/20 14:56:26;;;;;;;9.75;5.85;;;;;;;;;;5032628;28;20234;-84
2022/03/20 14:58:54;;;;;;;14.35;6.25;;;;;;;;;;5033361;28;20210;-84
2022/03/20 15:01:22;;;;;;;7.80;5.50;;;;;;;;;;5029165;28;20265;-84
2022/03/20 15:03:49;;;;;;;6.47;5.18;;;;;;;;;;5015489;28;20328;-82
2022/03/20 15:06:21;;;;;;;6.00;5.07;;;;;;;;;;5016652;28;20609;-84
2022/03/20 15:11:42;;;;;;;8.23;5.45;;;;;;;;;;4989091;28;20241;-83
2022/03/20 15:14:09;;;;;;;8.73;5.25;;;;;;;;;;5014012;28;20227;-84
2022/03/20 15:16:36;;;;;;;9.88;5.60;;;;;;;;;;5011839;28;20591;-84